Golden Hills, California
Current Conditions -  °F | °C
As of 10:15 PM on Monday 20 Oct 2014 (Local Time) from KMHV Reporting Station
Clear Clear  
Wind Chill: 64°   Ceiling: Unl
Heat Index: 64°   Visibility: 10mi
Dew Point: 46°   Wind: 21mph
Humidity: 52%   Direction: 290°WNW
Pressure: 29.94"   Gusts: 41mph
Location:  35.1338°N, 118.552°W
Report Text: KMHV 210515Z AUTO 29018G36KT 10SM CLR 18/08 A2994 RMK AO1
Loading
Personal Weather Stations






























Interactive Weather Map New forecast layout! Learn more

10-Day Weather Forecast

Advertisements
Track Severe Weather on mobile